createdAt,value
2018-03-24T00:01:11.118Z,19.13
2018-03-24T00:03:39.373Z,19.30
2018-03-24T00:06:07.612Z,17.23
2018-03-24T00:08:35.859Z,18.93
2018-03-24T00:11:04.092Z,20.23
2018-03-24T00:13:33.288Z,20.20
2018-03-24T00:16:01.536Z,19.00
2018-03-24T00:18:29.766Z,18.60
2018-03-24T00:20:58.014Z,18.03
2018-03-24T00:23:26.249Z,19.43
2018-03-24T00:25:54.496Z,19.50
2018-03-24T00:28:22.752Z,19.70
2018-03-24T00:30:50.987Z,18.10
2018-03-24T00:33:19.236Z,21.20
2018-03-24T00:35:47.475Z,17.73
2018-03-24T00:38:15.744Z,18.30
2018-03-24T00:40:43.983Z,18.57
2018-03-24T00:43:12.223Z,16.70
2018-03-24T00:45:40.464Z,18.83
2018-03-24T00:48:08.721Z,17.60
2018-03-24T00:50:36.953Z,19.80
2018-03-24T00:53:05.208Z,19.33
2018-03-24T00:55:34.204Z,17.50
2018-03-24T00:58:03.228Z,18.40
2018-03-24T01:00:31.455Z,17.70
2018-03-24T01:02:59.712Z,18.60
2018-03-24T01:05:27.964Z,18.83
2018-03-24T01:07:56.241Z,17.73
2018-03-24T01:10:24.461Z,19.27
2018-03-24T01:12:52.703Z,19.37
2018-03-24T01:15:20.941Z,19.40
2018-03-24T01:17:49.205Z,20.23
2018-03-24T01:20:18.208Z,18.90
2018-03-24T01:22:47.224Z,16.53
2018-03-24T01:25:15.456Z,19.77
2018-03-24T01:27:44.486Z,19.17
2018-03-24T01:30:12.717Z,18.20
2018-03-24T01:32:40.963Z,18.77
2018-03-24T01:35:09.206Z,19.33
2018-03-24T01:37:37.468Z,17.13
2018-03-24T01:40:06.476Z,17.60
2018-03-24T01:42:34.732Z,17.90
2018-03-24T01:45:03.751Z,19.40
2018-03-24T01:47:32.004Z,19.17
2018-03-24T01:50:01.017Z,19.83
2018-03-24T01:52:29.279Z,20.83
2018-03-24T01:54:58.321Z,19.20
2018-03-24T01:57:26.605Z,19.30
2018-03-24T01:59:54.878Z,17.50
2018-03-24T02:02:23.131Z,18.77
2018-03-24T02:04:51.366Z,18.20
2018-03-24T02:07:20.404Z,20.40
2018-03-24T02:09:48.638Z,19.47
2018-03-24T02:12:17.869Z,19.93
2018-03-24T02:14:46.123Z,18.43
2018-03-24T02:17:15.144Z,20.60
2018-03-24T02:19:43.390Z,20.60
2018-03-24T02:22:12.416Z,21.40
2018-03-24T02:24:45.108Z,21.73
2018-03-24T02:27:13.370Z,19.80
2018-03-24T02:29:41.601Z,21.03
2018-03-24T02:32:22.942Z,20.93
2018-03-24T02:34:51.180Z,21.77
2018-03-24T02:37:20.204Z,20.80
2018-03-24T02:39:48.448Z,23.40
2018-03-24T02:42:16.711Z,21.53
2018-03-24T02:44:44.945Z,24.17
2018-03-24T02:47:13.198Z,24.87
2018-03-24T02:49:41.429Z,21.13
2018-03-24T02:52:09.683Z,25.40
2018-03-24T02:54:38.909Z,23.03
2018-03-24T02:57:07.199Z,24.50
2018-03-24T02:59:36.783Z,22.10
2018-03-24T03:02:05.020Z,22.17
2018-03-24T03:04:33.273Z,22.17
2018-03-24T03:07:01.513Z,24.10
2018-03-24T03:09:29.770Z,24.47
2018-03-24T03:11:57.996Z,23.93
2018-03-24T03:14:27.013Z,23.90
2018-03-24T03:16:55.242Z,23.60
2018-03-24T03:19:23.484Z,23.77
2018-03-24T03:21:52.499Z,23.80
2018-03-24T03:24:20.761Z,25.17
2018-03-24T03:26:49.004Z,25.97
2018-03-24T03:29:17.251Z,25.17
2018-03-24T03:34:47.355Z,24.77
2018-03-24T03:37:16.379Z,26.90
2018-03-24T03:39:44.715Z,26.37
2018-03-24T03:42:13.000Z,26.00
2018-03-24T03:44:41.257Z,24.90
2018-03-24T03:47:09.501Z,27.33
2018-03-24T03:49:37.762Z,25.93
2018-03-24T03:52:06.789Z,27.40
2018-03-24T03:54:35.098Z,28.63
2018-03-24T03:57:03.350Z,27.40
2018-03-24T03:59:32.570Z,26.53
2018-03-24T04:02:00.840Z,25.13
2018-03-24T04:04:29.101Z,26.43
2018-03-24T04:06:58.116Z,25.73
2018-03-24T04:09:26.426Z,26.03
2018-03-24T04:11:54.706Z,28.57
2018-03-24T04:14:22.978Z,27.40
2018-03-24T04:16:51.255Z,25.47
2018-03-24T04:19:19.521Z,26.77
2018-03-24T04:21:47.771Z,26.00
2018-03-24T04:24:16.799Z,26.83
2018-03-24T04:26:45.046Z,29.67
2018-03-24T04:29:13.321Z,28.03
2018-03-24T04:31:41.570Z,28.03
2018-03-24T04:34:09.838Z,28.57
2018-03-24T04:36:38.122Z,28.37
2018-03-24T04:39:06.390Z,28.70
2018-03-24T04:41:34.957Z,30.60
2018-03-24T04:44:04.292Z,28.23
2018-03-24T04:46:32.538Z,29.17
2018-03-24T04:49:01.591Z,28.37
2018-03-24T04:51:29.858Z,30.83
2018-03-24T04:53:58.134Z,27.10
2018-03-24T04:56:26.382Z,28.17
2018-03-24T04:58:55.512Z,27.00
2018-03-24T05:01:23.774Z,27.33
2018-03-24T05:03:52.050Z,26.73
2018-03-24T05:06:21.058Z,24.00
2018-03-24T05:08:49.395Z,25.60
2018-03-24T05:11:17.907Z,28.43
2018-03-24T05:13:46.943Z,29.43
2018-03-24T05:16:15.189Z,25.37
2018-03-24T05:18:44.252Z,25.80
2018-03-24T05:21:13.420Z,24.20
2018-03-24T05:23:41.712Z,25.43
2018-03-24T05:26:10.042Z,26.00
2018-03-24T05:28:38.379Z,25.17
2018-03-24T05:31:06.621Z,25.23
2018-03-24T05:33:34.901Z,26.77
2018-03-24T05:36:03.934Z,27.70
2018-03-24T05:38:32.221Z,28.20
2018-03-24T05:41:00.497Z,28.50
2018-03-24T05:43:28.799Z,28.17
2018-03-24T05:45:57.391Z,26.40
2018-03-24T05:48:25.666Z,27.10
2018-03-24T05:50:53.936Z,27.93
2018-03-24T05:53:22.218Z,27.10
2018-03-24T05:55:50.502Z,30.37
2018-03-24T05:58:18.891Z,28.60
2018-03-24T06:00:47.143Z,29.20
2018-03-24T06:03:15.424Z,26.37
2018-03-24T06:05:43.730Z,27.67
2018-03-24T06:08:11.995Z,27.00
2018-03-24T06:10:40.279Z,26.97
2018-03-24T06:13:08.542Z,27.43
2018-03-24T06:15:36.843Z,26.27
2018-03-24T06:18:05.117Z,30.97
2018-03-24T06:20:33.381Z,29.47
2018-03-24T06:23:01.639Z,27.07
2018-03-24T06:25:30.669Z,29.10
2018-03-24T06:27:58.958Z,29.17
2018-03-24T06:30:29.069Z,27.13
2018-03-24T06:32:57.368Z,26.20
2018-03-24T06:35:27.948Z,24.67
2018-03-24T06:37:57.030Z,24.80
2018-03-24T06:40:25.291Z,24.60
2018-03-24T06:42:55.843Z,27.00
2018-03-24T06:45:24.111Z,25.00
2018-03-24T06:47:52.459Z,24.80
2018-03-24T06:50:20.739Z,24.20
2018-03-24T06:52:49.009Z,23.93
2018-03-24T06:55:17.323Z,23.10
2018-03-24T06:57:45.574Z,24.30
2018-03-24T07:00:13.839Z,21.73
2018-03-24T07:02:42.848Z,21.40
2018-03-24T07:05:11.114Z,22.63
2018-03-24T07:07:40.205Z,21.93
2018-03-24T07:10:08.446Z,21.60
2018-03-24T07:12:36.726Z,25.30
2018-03-24T07:15:04.992Z,21.70
2018-03-24T07:17:33.237Z,21.70
2018-03-24T07:20:01.620Z,24.07
2018-03-24T07:22:31.216Z,23.27
2018-03-24T07:24:59.552Z,23.80
2018-03-24T07:27:27.808Z,24.50
2018-03-24T07:29:56.111Z,23.20
2018-03-24T07:32:25.288Z,24.10
2018-03-24T07:34:54.324Z,26.00
2018-03-24T07:37:22.582Z,24.40
2018-03-24T07:39:50.912Z,25.93
2018-03-24T07:42:19.158Z,26.23
2018-03-24T07:44:47.445Z,28.93
2018-03-24T07:47:15.672Z,31.70
2018-03-24T07:49:44.708Z,33.07
2018-03-24T07:52:12.964Z,32.37
2018-03-24T07:54:42.015Z,28.60
2018-03-24T07:57:10.272Z,32.53
2018-03-24T07:59:46.610Z,26.40
2018-03-24T08:02:16.167Z,31.47
2018-03-24T08:04:45.608Z,25.23
2018-03-24T08:07:14.154Z,25.50
2018-03-24T08:09:43.488Z,24.70
2018-03-24T08:12:12.002Z,25.20
2018-03-24T08:14:40.667Z,24.40
2018-03-24T08:17:09.795Z,23.90
2018-03-24T08:19:38.252Z,25.00
2018-03-24T08:22:06.531Z,25.77
2018-03-24T08:24:34.878Z,24.03
2018-03-24T08:27:03.135Z,20.80
2018-03-24T08:29:31.403Z,21.10
2018-03-24T08:32:00.430Z,24.30
2018-03-24T08:34:28.704Z,21.83
2018-03-24T08:36:56.992Z,25.33
2018-03-24T08:39:25.282Z,24.53
2018-03-24T08:41:53.532Z,24.30
2018-03-24T08:44:22.586Z,26.00
2018-03-24T08:46:50.836Z,23.90
2018-03-24T08:49:19.108Z,24.00
2018-03-24T08:51:48.129Z,22.20
2018-03-24T08:54:16.406Z,23.10
2018-03-24T08:56:44.654Z,22.70
2018-03-24T08:59:13.689Z,20.67
2018-03-24T09:01:41.961Z,22.60
2018-03-24T09:04:10.393Z,22.93
2018-03-24T09:06:39.695Z,21.03
2018-03-24T09:09:08.571Z,23.47
2018-03-24T09:11:37.102Z,21.57
2018-03-24T09:14:05.777Z,21.90
2018-03-24T09:16:34.266Z,21.07
2018-03-24T09:19:02.907Z,23.40
2018-03-24T09:21:31.159Z,22.67
2018-03-24T09:24:00.339Z,23.37
2018-03-24T09:26:28.600Z,22.83
2018-03-24T09:28:56.862Z,21.40
2018-03-24T09:31:25.112Z,21.87
2018-03-24T09:33:54.147Z,20.97
2018-03-24T09:36:22.407Z,21.17
2018-03-24T09:38:50.670Z,20.43
2018-03-24T09:41:19.706Z,20.10
2018-03-24T09:43:47.963Z,22.00
2018-03-24T09:46:16.233Z,19.90
2018-03-24T09:48:45.264Z,17.63
2018-03-24T09:51:13.598Z,16.23
2018-03-24T09:53:41.849Z,18.87
2018-03-24T09:56:10.118Z,18.63
2018-03-24T09:58:38.370Z,17.30
2018-03-24T10:01:07.603Z,13.80
2018-03-24T10:03:35.978Z,15.13
2018-03-24T10:06:04.545Z,8.97
2018-03-24T10:08:33.549Z,12.00
2018-03-24T10:11:01.899Z,14.93
2018-03-24T10:13:30.243Z,15.87
2018-03-24T10:15:58.522Z,11.37
2018-03-24T10:18:26.770Z,9.13
2018-03-24T10:24:29.380Z,9.47
2018-03-24T10:26:57.698Z,8.83
2018-03-24T10:29:25.961Z,8.63
2018-03-24T10:31:54.228Z,8.30
2018-03-24T10:34:22.490Z,8.40
2018-03-24T10:36:51.529Z,8.03
2018-03-24T10:39:19.801Z,9.77
2018-03-24T10:41:48.056Z,9.00
2018-03-24T10:44:17.072Z,8.83
2018-03-24T10:46:45.330Z,8.60
2018-03-24T10:49:14.343Z,8.97
2018-03-24T10:51:42.612Z,9.00
2018-03-24T10:54:11.622Z,9.87
2018-03-24T10:56:39.894Z,8.57
2018-03-24T10:59:08.919Z,9.47
2018-03-24T11:01:37.452Z,8.80
2018-03-24T11:04:06.195Z,9.50
2018-03-24T11:06:34.836Z,9.93
2018-03-24T11:09:04.140Z,8.83
2018-03-24T11:11:32.628Z,10.20
2018-03-24T11:14:02.035Z,9.80
2018-03-24T11:16:30.406Z,9.80
2018-03-24T11:18:58.650Z,8.40
2018-03-24T11:21:26.957Z,9.13
2018-03-24T11:23:55.186Z,8.70
2018-03-24T11:26:24.226Z,8.97
2018-03-24T11:28:52.509Z,9.00
2018-03-24T11:31:20.762Z,8.57
2018-03-24T11:33:49.041Z,9.47
2018-03-24T11:36:17.317Z,10.27
2018-03-24T11:38:45.598Z,10.10
2018-03-24T11:41:13.914Z,8.70
2018-03-24T11:43:42.183Z,9.27
2018-03-24T11:46:10.478Z,9.00
2018-03-24T11:48:38.721Z,9.10
2018-03-24T11:51:08.118Z,9.70
2018-03-24T11:53:46.397Z,8.30
2018-03-24T11:56:14.658Z,9.20
2018-03-24T11:58:42.881Z,10.30
2018-03-24T12:01:11.141Z,10.90
2018-03-24T12:03:41.276Z,9.47
2018-03-24T12:06:10.118Z,9.23
2018-03-24T12:08:38.581Z,10.73
2018-03-24T12:11:07.350Z,11.33
2018-03-24T12:13:36.355Z,11.57
2018-03-24T12:16:05.039Z,10.47
2018-03-24T12:18:33.607Z,9.73
2018-03-24T12:21:02.160Z,10.33
2018-03-24T12:23:32.232Z,11.50
2018-03-24T12:26:00.497Z,10.63
2018-03-24T12:28:28.749Z,11.53
2018-03-24T12:30:57.024Z,10.47
2018-03-24T12:33:25.270Z,10.97
2018-03-24T12:35:53.573Z,9.30
2018-03-24T12:38:22.586Z,9.40
2018-03-24T12:40:50.852Z,9.73
2018-03-24T12:43:19.886Z,10.50
2018-03-24T12:45:48.194Z,9.63
2018-03-24T12:48:16.442Z,9.63
2018-03-24T12:50:44.731Z,9.20
2018-03-24T12:53:13.044Z,9.77
2018-03-24T12:55:41.287Z,8.77
2018-03-24T12:58:09.527Z,9.77
2018-03-24T13:00:38.561Z,10.63
2018-03-24T13:03:06.818Z,9.73
2018-03-24T13:05:35.846Z,9.80
2018-03-24T13:08:04.099Z,9.27
2018-03-24T13:10:33.126Z,9.40
2018-03-24T13:13:01.381Z,8.73
2018-03-24T13:15:30.533Z,8.83
2018-03-24T13:17:58.824Z,11.03
2018-03-24T13:20:27.094Z,10.03
2018-03-24T13:22:55.373Z,10.70
2018-03-24T13:25:23.643Z,10.20
2018-03-24T13:27:51.918Z,10.50
2018-03-24T13:30:20.196Z,10.00
2018-03-24T13:32:48.472Z,10.00
2018-03-24T13:35:16.735Z,9.47
2018-03-24T13:37:45.857Z,11.03
2018-03-24T13:40:14.112Z,10.53
2018-03-24T13:42:42.384Z,10.53
2018-03-24T13:45:11.414Z,9.60
2018-03-24T13:47:39.674Z,9.97
2018-03-24T13:50:07.928Z,9.03
2018-03-24T13:52:36.191Z,9.70
2018-03-24T13:55:04.454Z,9.47
2018-03-24T13:57:32.747Z,9.20
2018-03-24T14:00:01.006Z,9.17
2018-03-24T14:02:29.418Z,8.97
2018-03-24T14:04:58.768Z,10.30
2018-03-24T14:07:28.433Z,8.23
2018-03-24T14:09:57.174Z,9.93
2018-03-24T14:12:25.812Z,8.57
2018-03-24T14:14:54.349Z,8.90
2018-03-24T14:17:22.826Z,9.43
2018-03-24T14:22:25.781Z,10.10
2018-03-24T14:24:54.043Z,9.47
2018-03-24T14:27:22.386Z,9.20
2018-03-24T14:29:50.626Z,9.20
2018-03-24T14:32:18.905Z,8.53
2018-03-24T14:34:47.152Z,10.47
2018-03-24T14:37:15.418Z,9.33
2018-03-24T14:39:44.425Z,9.87
2018-03-24T14:42:12.696Z,9.67
2018-03-24T14:44:41.721Z,9.43
2018-03-24T14:47:09.994Z,10.67
2018-03-24T14:49:38.253Z,10.77
2018-03-24T14:52:07.300Z,10.27
2018-03-24T14:54:35.625Z,10.33
2018-03-24T14:57:04.703Z,12.27
2018-03-24T14:59:32.938Z,9.90
2018-03-24T15:02:01.211Z,9.10
2018-03-24T15:04:29.470Z,10.30
2018-03-24T15:06:58.497Z,10.30
2018-03-24T15:09:26.754Z,10.20
2018-03-24T15:11:55.791Z,9.77
2018-03-24T15:14:24.051Z,9.73
2018-03-24T15:16:52.331Z,8.53
2018-03-24T15:19:20.581Z,8.53
2018-03-24T15:21:48.887Z,9.13
2018-03-24T15:24:17.898Z,9.90
2018-03-24T15:26:46.162Z,8.60
2018-03-24T15:29:27.118Z,8.60
2018-03-24T15:32:07.564Z,9.73
2018-03-24T15:34:47.577Z,9.23
2018-03-24T15:37:15.838Z,8.17
2018-03-24T15:39:44.850Z,9.40
2018-03-24T15:42:13.125Z,8.20
2018-03-24T15:44:42.139Z,8.77
2018-03-24T15:47:10.406Z,9.30
2018-03-24T15:49:38.711Z,9.20
2018-03-24T15:52:06.978Z,9.10
2018-03-24T15:54:35.236Z,8.70
2018-03-24T15:57:03.506Z,9.13
2018-03-24T15:59:31.761Z,7.67
2018-03-24T16:02:00.488Z,8.30
2018-03-24T16:04:28.866Z,8.63
2018-03-24T16:06:57.902Z,8.17
2018-03-24T16:09:26.208Z,9.57
2018-03-24T16:11:54.506Z,8.43
2018-03-24T16:14:22.771Z,8.80
2018-03-24T16:16:51.037Z,8.80
2018-03-24T16:19:19.309Z,8.97
2018-03-24T16:21:47.575Z,8.80
2018-03-24T16:24:15.828Z,8.07
2018-03-24T16:26:44.098Z,10.20
2018-03-24T16:29:12.379Z,8.97
2018-03-24T16:31:40.674Z,9.17
2018-03-24T16:34:08.985Z,9.20
2018-03-24T16:36:38.037Z,8.43
2018-03-24T16:39:06.295Z,8.90
2018-03-24T16:41:34.558Z,8.10
2018-03-24T16:44:02.815Z,8.17
2018-03-24T16:46:31.847Z,8.20
2018-03-24T16:49:00.110Z,8.23
2018-03-24T16:51:28.358Z,8.40
2018-03-24T16:53:57.395Z,7.67
2018-03-24T16:56:25.667Z,8.60
2018-03-24T16:58:53.978Z,8.90
2018-03-24T17:01:22.241Z,8.67
2018-03-24T17:03:50.680Z,9.70
2018-03-24T17:06:19.524Z,8.27
2018-03-24T17:08:47.854Z,8.50
2018-03-24T17:11:16.446Z,8.80
2018-03-24T17:13:44.920Z,9.53
2018-03-24T17:16:13.397Z,10.07
2018-03-24T17:18:41.818Z,10.00
2018-03-24T17:21:10.839Z,9.70
2018-03-24T17:23:39.126Z,9.90
2018-03-24T17:26:08.128Z,10.20
2018-03-24T17:28:36.415Z,11.27
2018-03-24T17:31:05.434Z,10.87
2018-03-24T17:33:33.706Z,12.37
2018-03-24T17:36:01.978Z,11.87
2018-03-24T17:38:30.266Z,10.17
2018-03-24T17:40:58.522Z,12.00
2018-03-24T17:43:26.937Z,11.77
2018-03-24T17:45:55.212Z,10.70
2018-03-24T17:48:23.478Z,11.27
2018-03-24T17:50:51.753Z,10.53
2018-03-24T17:53:20.029Z,11.73
2018-03-24T17:55:48.277Z,9.90
2018-03-24T17:58:17.339Z,10.73
2018-03-24T18:00:45.577Z,13.18
2018-03-24T18:03:14.626Z,11.63
2018-03-24T18:05:42.889Z,13.37
2018-03-24T18:08:11.166Z,11.90
2018-03-24T18:10:39.414Z,12.53
2018-03-24T18:13:08.450Z,12.90
2018-03-24T18:15:36.709Z,11.73
2018-03-24T18:18:04.983Z,10.90
2018-03-24T18:20:33.279Z,11.50
2018-03-24T18:23:01.550Z,12.90
2018-03-24T18:25:29.809Z,11.60
2018-03-24T18:27:58.882Z,13.20
2018-03-24T18:30:27.126Z,11.30
2018-03-24T18:32:55.415Z,10.80
2018-03-24T18:35:23.659Z,10.90
2018-03-24T18:37:52.699Z,11.77
2018-03-24T18:40:20.953Z,12.83
2018-03-24T18:42:49.230Z,11.00
2018-03-24T18:45:17.976Z,12.03
2018-03-24T18:47:46.328Z,12.00
2018-03-24T18:50:14.639Z,12.37
2018-03-24T18:52:42.914Z,11.07
2018-03-24T18:55:11.217Z,12.77
2018-03-24T18:57:41.009Z,13.53
2018-03-24T19:00:09.290Z,11.63
2018-03-24T19:02:37.549Z,11.57
2018-03-24T19:05:05.809Z,12.30
2018-03-24T19:07:34.066Z,12.93
2018-03-24T19:10:03.102Z,10.93
2018-03-24T19:12:31.363Z,11.40
2018-03-24T19:15:00.397Z,12.83
2018-03-24T19:17:28.691Z,13.00
2018-03-24T19:19:56.979Z,13.80
2018-03-24T19:22:25.214Z,12.40
2018-03-24T19:24:53.483Z,13.77
2018-03-24T19:27:21.810Z,14.90
2018-03-24T19:29:50.103Z,16.37
2018-03-24T19:32:18.400Z,16.00
2018-03-24T19:34:46.686Z,14.10
2018-03-24T19:37:16.802Z,17.63
2018-03-24T19:39:45.047Z,17.93
2018-03-24T19:42:13.318Z,14.80
2018-03-24T19:44:41.551Z,13.00
2018-03-24T19:47:10.584Z,11.73
2018-03-24T19:49:38.831Z,13.07
2018-03-24T19:52:07.866Z,12.33
2018-03-24T19:54:36.118Z,12.40
2018-03-24T19:57:05.154Z,11.80
2018-03-24T19:59:33.398Z,11.37
2018-03-24T20:02:02.454Z,12.83
2018-03-24T20:04:30.707Z,12.63
2018-03-24T20:06:59.008Z,10.57
2018-03-24T20:09:27.274Z,10.73
2018-03-24T20:11:55.542Z,10.30
2018-03-24T20:14:24.576Z,8.97
2018-03-24T20:16:52.843Z,9.83
2018-03-24T20:19:21.107Z,11.10
2018-03-24T20:21:49.440Z,10.20
2018-03-24T20:24:17.692Z,10.73
2018-03-24T20:26:45.945Z,10.17
2018-03-24T20:29:15.002Z,10.93
2018-03-24T20:31:43.219Z,9.87
2018-03-24T20:34:11.501Z,10.00
2018-03-24T20:36:40.514Z,9.97
2018-03-24T20:39:08.775Z,10.63
2018-03-24T20:41:37.811Z,9.90
2018-03-24T20:44:06.078Z,10.37
2018-03-24T20:46:34.334Z,11.57
2018-03-24T20:49:03.373Z,11.07
2018-03-24T20:51:31.618Z,10.10
2018-03-24T20:54:01.283Z,10.20
2018-03-24T20:56:29.559Z,10.90
2018-03-24T20:58:57.846Z,9.80
2018-03-24T21:01:26.136Z,9.87
2018-03-24T21:03:54.415Z,9.77
2018-03-24T21:06:22.673Z,12.13
2018-03-24T21:08:50.943Z,11.20
2018-03-24T21:11:19.234Z,12.53
2018-03-24T21:13:47.499Z,12.03
2018-03-24T21:16:15.791Z,12.13
2018-03-24T21:18:44.043Z,10.03
2018-03-24T21:21:12.326Z,11.53
2018-03-24T21:23:40.599Z,11.80
2018-03-24T21:26:09.726Z,12.07
2018-03-24T21:28:37.973Z,11.00
2018-03-24T21:31:06.997Z,11.97
2018-03-24T21:33:35.250Z,10.50
2018-03-24T21:36:04.297Z,10.60
2018-03-24T21:38:32.556Z,12.03
2018-03-24T21:41:00.830Z,11.70
2018-03-24T21:43:29.151Z,10.90
2018-03-24T21:45:57.432Z,11.47
2018-03-24T21:48:25.685Z,10.47
2018-03-24T21:50:53.946Z,11.77
2018-03-24T21:53:22.959Z,11.80
2018-03-24T21:55:51.256Z,11.10
2018-03-24T21:58:19.518Z,12.50
2018-03-24T22:00:47.785Z,11.37
2018-03-24T22:03:16.798Z,10.77
2018-03-24T22:05:45.253Z,10.90
2018-03-24T22:08:14.275Z,11.10
2018-03-24T22:10:42.602Z,11.10
2018-03-24T22:13:10.843Z,10.10
2018-03-24T22:15:39.143Z,10.73
2018-03-24T22:18:07.412Z,11.10
2018-03-24T22:20:35.685Z,10.10
2018-03-24T22:23:04.685Z,11.10
2018-03-24T22:25:32.951Z,10.43
2018-03-24T22:28:01.979Z,12.33
2018-03-24T22:30:30.235Z,12.60
2018-03-24T22:32:58.480Z,10.70
2018-03-24T22:35:26.739Z,11.80
2018-03-24T22:37:54.983Z,12.00
2018-03-24T22:40:23.244Z,11.90
2018-03-24T22:42:52.298Z,11.13
2018-03-24T22:45:21.976Z,11.73
2018-03-24T22:47:51.349Z,11.53
2018-03-24T22:50:19.727Z,11.90
2018-03-24T22:52:48.200Z,11.30
2018-03-24T22:55:16.793Z,11.63
2018-03-24T22:57:45.548Z,13.40
2018-03-24T23:00:14.278Z,11.50
2018-03-24T23:02:42.598Z,12.80
2018-03-24T23:05:10.870Z,12.30
2018-03-24T23:07:39.179Z,12.20
2018-03-24T23:10:07.499Z,12.00
2018-03-24T23:12:35.832Z,14.03
2018-03-24T23:15:04.237Z,11.83
2018-03-24T23:17:32.793Z,11.53
2018-03-24T23:20:01.381Z,12.33
2018-03-24T23:22:30.657Z,13.77
2018-03-24T23:24:58.886Z,11.47
2018-03-24T23:27:27.180Z,12.30
2018-03-24T23:29:55.435Z,12.20
2018-03-24T23:32:23.755Z,11.30
2018-03-24T23:34:52.016Z,12.53
2018-03-24T23:37:20.401Z,12.60
2018-03-24T23:39:48.689Z,12.80
2018-03-24T23:42:16.945Z,11.83
2018-03-24T23:44:45.304Z,12.77
2018-03-24T23:47:14.394Z,11.83
2018-03-24T23:49:42.691Z,12.20
2018-03-24T23:52:11.725Z,11.90
2018-03-24T23:54:39.999Z,11.73
2018-03-24T23:57:09.250Z,12.67
2018-03-24T23:59:39.022Z,11.60
